Time;durP1;ratioP1;P1;durP2;ratioP2;P2;SDS_P1;SDS_P2;PMS_P1;PMS_P2;Temp;Humidity;BMP_temperature;BMP_pressure;BME280_temperature;BME280_humidity;BME280_pressure;Samples;Min_cycle;Max_cycle;Signal;HPM_P1;HPM_P2
2023/12/29 00:01:44;;;;;;;;;;;;;;;9.91;88.29;100750.03;5038756;28;19942;-73
2023/12/29 00:04:10;;;;;;;;;;;;;;;9.86;88.68;100730.94;5054732;28;19932;-73
2023/12/29 00:06:38;;;;;;;;;;;;;;;9.93;88.24;100737.81;5038695;28;19958;-73
2023/12/29 00:09:04;;;;;;;;;;;;;;;9.92;88.18;100725.63;5054129;28;20399;-72
2023/12/29 00:11:29;;;;;;;;;;;;;;;9.94;88.27;100720.34;5039031;28;19920;-71
2023/12/29 00:13:54;;;;;;;;;;;;;;;9.91;88.05;100721.25;5055033;28;20315;-71
2023/12/29 00:16:20;;;;;;;;;;;;;;;9.95;88.56;100727.34;5038816;28;19931;-72
2023/12/29 00:18:46;;;;;;;;;;;;;;;9.94;88.27;100722.97;5038104;28;20050;-71
2023/12/29 00:21:11;;;;;;;;;;;;;;;9.89;88.63;100718.66;5063732;28;19985;-70
2023/12/29 00:23:39;;;;;;;;;;;;;;;9.95;88.67;100722.97;5054087;28;19989;-70
2023/12/29 00:26:04;;;;;;;;;;;;;;;9.92;88.49;100712.53;5055486;28;19955;-73
2023/12/29 00:28:32;;;;;;;;;;;;;;;9.88;88.89;100727.41;5054538;28;19924;-72
2023/12/29 00:30:58;;;;;;;;;;;;;;;9.92;89.18;100730.84;5054422;28;19920;-73
2023/12/29 00:33:23;;;;;;;;;;;;;;;9.88;89.50;100713.44;5037679;28;19982;-72
2023/12/29 00:35:48;;;;;;;;;;;;;;;9.80;90.17;100721.38;5032194;28;20368;-72
2023/12/29 00:38:14;;;;;;;;;;;;;;;9.83;89.84;100720.50;5048815;28;20433;-73
2023/12/29 00:40:39;;;;;;;;;;;;;;;9.78;90.27;100704.81;5026236;28;19928;-71
2023/12/29 00:43:05;;;;;;;;;;;;;;;9.76;90.51;100703.97;5060821;28;19931;-71
2023/12/29 00:45:32;;;;;;;;;;;;;;;9.76;90.41;100701.38;5043898;28;19925;-73
2023/12/29 00:48:01;;;;;;;;;;;;;;;9.76;90.88;100692.66;5060580;28;19925;-72
2023/12/29 00:50:26;;;;;;;;;;;;;;;9.70;90.87;100689.22;5027600;28;19920;-72
2023/12/29 00:52:51;;;;;;;;;;;;;;;9.69;91.36;100690.09;5048576;28;19923;-73
2023/12/29 00:55:17;;;;;;;;;;;;;;;9.68;91.66;100695.34;5049038;28;19920;-72
2023/12/29 00:57:42;;;;;;;;;;;;;;;9.62;92.02;100691.03;5030517;28;20007;-71
2023/12/29 01:00:08;;;;;;;;;;;;;;;9.64;92.08;100701.47;5054879;28;19923;-69
2023/12/29 01:02:33;;;;;;;;;;;;;;;9.53;93.00;100701.59;5056348;28;19932;-72
2023/12/29 01:04:58;;;;;;;;;;;;;;;9.49;93.63;100692.03;5049055;28;19920;-72
2023/12/29 01:07:24;;;;;;;;;;;;;;;9.41;94.15;100692.13;5061423;28;19933;-71
2023/12/29 01:09:49;;;;;;;;;;;;;;;9.38;94.47;100697.38;5050320;28;19920;-70
2023/12/29 01:12:15;;;;;;;;;;;;;;;9.30;95.36;100696.59;5036421;28;19926;-72
2023/12/29 01:14:42;;;;;;;;;;;;;;;9.31;95.32;100693.94;5037146;28;20372;-69
2023/12/29 01:17:08;;;;;;;;;;;;;;;9.32;95.41;100692.19;5054609;28;19919;-71
2023/12/29 01:19:33;;;;;;;;;;;;;;;9.24;96.30;100700.13;5040966;28;19924;-72
2023/12/29 01:21:59;;;;;;;;;;;;;;;9.21;97.10;100699.25;5037051;28;19920;-71
2023/12/29 01:24:24;;;;;;;;;;;;;;;9.18;97.34;100706.25;5032352;28;20003;-71
2023/12/29 01:26:49;;;;;;;;;;;;;;;9.02;98.25;100715.09;5036887;28;20012;-72
2023/12/29 01:29:15;;;;;;;;;;;;;;;8.92;98.30;100703.84;5055636;28;19928;-72
2023/12/29 01:31:40;;;;;;;;;;;;;;;8.87;98.78;100710.84;5038250;28;19921;-71
2023/12/29 01:34:05;;;;;;;;;;;;;;;8.86;100.00;100711.72;5051880;28;19943;-70
2023/12/29 01:36:31;;;;;;;;;;;;;;;8.79;100.00;100707.41;5046910;28;19916;-71
2023/12/29 01:38:56;;;;;;;;;;;;;;;8.65;100.00;100705.75;5037206;28;19965;-69
2023/12/29 01:41:22;;;;;;;;;;;;;;;8.61;100.00;100700.56;5063716;28;19920;-71
2023/12/29 01:43:57;;;;;;;;;;;;;;;8.50;100.00;100695.41;5047525;28;20270;-69
2023/12/29 01:46:23;;;;;;;;;;;;;;;8.42;100.00;100691.91;5033610;28;19919;-70
2023/12/29 01:48:48;;;;;;;;;;;;;;;8.43;100.00;100683.22;5059867;28;20028;-70
2023/12/29 01:51:14;;;;;;;;;;;;;;;8.38;100.00;100691.09;5031576;28;20026;-71
2023/12/29 01:53:39;;;;;;;;;;;;;;;8.39;100.00;100684.09;5017564;28;19971;-70
2023/12/29 01:56:05;;;;;;;;;;;;;;;8.36;100.00;100689.34;5059482;28;19928;-71
2023/12/29 01:58:30;;;;;;;;;;;;;;;8.42;100.00;100684.97;5021961;28;19920;-72
2023/12/29 02:00:55;;;;;;;;;;;;;;;8.35;100.00;100698.03;5049076;28;20356;-71
2023/12/29 02:03:21;;;;;;;;;;;;;;;8.37;100.00;100685.88;5030176;28;19924;-71
2023/12/29 02:05:50;;;;;;;;;;;;;;;8.35;100.00;100679.78;5052007;28;19967;-70
2023/12/29 02:08:16;;;;;;;;;;;;;;;8.44;100.00;100666.69;5051161;28;19924;-71
2023/12/29 02:10:41;;;;;;;;;;;;;;;8.41;100.00;100678.00;5055154;28;19927;-70
2023/12/29 02:13:06;;;;;;;;;;;;;;;8.41;100.00;100685.84;5018850;28;19948;-72
2023/12/29 02:15:35;;;;;;;;;;;;;;;8.42;100.00;100686.69;5049558;28;19970;-70
2023/12/29 02:18:03;;;;;;;;;;;;;;;8.45;100.00;100684.13;5032342;28;19964;-70
2023/12/29 02:20:29;;;;;;;;;;;;;;;8.45;100.00;100691.97;5056162;28;19920;-71
2023/12/29 02:22:55;;;;;;;;;;;;;;;8.54;100.00;100688.44;5061707;28;19927;-70
2023/12/29 02:25:20;;;;;;;;;;;;;;;8.52;100.00;100688.44;5032387;28;19924;-71
2023/12/29 02:27:51;;;;;;;;;;;;;;;8.52;100.00;100688.44;5053390;28;19975;-70
2023/12/29 02:30:17;;;;;;;;;;;;;;;8.53;100.00;100684.94;5072539;28;19970;-71
2023/12/29 02:32:45;;;;;;;;;;;;;;;8.56;100.00;100681.44;5052808;28;19954;-70
2023/12/29 02:35:12;;;;;;;;;;;;;;;8.62;100.00;100687.50;5055453;28;19920;-72
2023/12/29 02:37:38;;;;;;;;;;;;;;;8.67;100.00;100675.25;5053179;28;20141;-70
2023/12/29 02:40:04;;;;;;;;;;;;;;;8.71;100.00;100675.25;5042238;28;19943;-71
2023/12/29 02:42:29;;;;;;;;;;;;;;;8.67;100.00;100677.88;5038495;28;20388;-71
2023/12/29 02:44:55;;;;;;;;;;;;;;;8.74;100.00;100667.41;5029004;28;19928;-71
2023/12/29 02:47:21;;;;;;;;;;;;;;;8.75;100.00;100674.34;5049286;28;19920;-72
2023/12/29 02:49:47;;;;;;;;;;;;;;;8.77;100.00;100672.59;5054985;28;20058;-70
2023/12/29 02:52:12;;;;;;;;;;;;;;;8.81;100.00;100674.31;5043174;28;19992;-71
2023/12/29 02:54:37;;;;;;;;;;;;;;;8.82;100.00;100673.41;5051128;28;20027;-70
2023/12/29 02:57:03;;;;;;;;;;;;;;;8.76;100.00;100679.56;5025854;28;19966;-70
2023/12/29 02:59:28;;;;;;;;;;;;;;;8.79;100.00;100663.88;5048016;28;20013;-71
2023/12/29 03:01:54;;;;;;;;;;;;;;;8.85;100.00;100676.03;5034741;28;19947;-70
2023/12/29 03:04:19;;;;;;;;;;;;;;;8.85;100.00;100676.03;5032683;28;19936;-72
2023/12/29 03:06:44;;;;;;;;;;;;;;;8.86;100.00;100672.53;5033701;28;19976;-72
2023/12/29 03:09:10;;;;;;;;;;;;;;;8.93;100.00;100675.97;5025718;28;20282;-72
2023/12/29 03:11:35;;;;;;;;;;;;;;;8.98;100.00;100672.44;5041166;28;19916;-71
2023/12/29 03:14:01;;;;;;;;;;;;;;;8.91;100.00;100675.97;5052315;28;19920;-72
2023/12/29 03:16:27;;;;;;;;;;;;;;;8.94;100.00;100669.88;5046480;28;20380;-70
2023/12/29 03:18:52;;;;;;;;;;;;;;;8.95;100.00;100662.00;5039158;28;20001;-71
2023/12/29 03:21:17;;;;;;;;;;;;;;;8.99;100.00;100663.72;5054192;28;20238;-73
2023/12/29 03:23:45;;;;;;;;;;;;;;;8.98;100.00;100668.97;5049485;28;19927;-71
2023/12/29 03:26:10;;;;;;;;;;;;;;;9.03;100.00;100667.16;5028073;28;19929;-72
2023/12/29 03:28:38;;;;;;;;;;;;;;;9.08;100.00;100662.78;5053254;28;19983;-72
2023/12/29 03:31:05;;;;;;;;;;;;;;;9.05;100.00;100656.69;5046362;28;20384;-70
2023/12/29 03:33:30;;;;;;;;;;;;;;;9.10;99.86;100663.63;5046724;28;20015;-71
2023/12/29 03:35:56;;;;;;;;;;;;;;;9.09;99.74;100658.41;5055243;28;20011;-71
2023/12/29 03:38:21;;;;;;;;;;;;;;;9.06;99.40;100663.66;5052019;28;20015;-72
2023/12/29 03:40:46;;;;;;;;;;;;;;;9.04;100.00;100661.06;5040075;28;19966;-70
2023/12/29 03:43:12;;;;;;;;;;;;;;;9.01;99.25;100661.97;5035823;28;19924;-71
2023/12/29 03:45:37;;;;;;;;;;;;;;;8.98;99.47;100667.22;5033238;28;19925;-72
2023/12/29 03:48:04;;;;;;;;;;;;;;;8.98;99.52;100669.81;5034761;28;19933;-72
2023/12/29 03:50:29;;;;;;;;;;;;;;;9.00;99.64;100660.22;5041420;28;19928;-73
2023/12/29 03:52:54;;;;;;;;;;;;;;;8.98;99.27;100648.91;5037203;28;19920;-72
2023/12/29 03:55:20;;;;;;;;;;;;;;;9.00;98.99;100659.34;5062606;28;19917;-74
2023/12/29 03:57:45;;;;;;;;;;;;;;;8.99;99.20;100655.00;5049576;28;20372;-70
2023/12/29 04:00:14;;;;;;;;;;;;;;;9.00;98.85;100646.28;5037595;28;19921;-72
2023/12/29 04:02:39;;;;;;;;;;;;;;;9.03;98.86;100641.03;5049355;28;19925;-69
2023/12/29 04:05:06;;;;;;;;;;;;;;;9.06;98.56;100647.97;5015451;28;19921;-72
2023/12/29 04:07:31;;;;;;;;;;;;;;;9.14;98.32;100651.41;5034218;28;20449;-72
2023/12/29 04:09:57;;;;;;;;;;;;;;;9.10;98.30;100660.16;5034357;28;19923;-72
2023/12/29 04:12:22;;;;;;;;;;;;;;;9.11;98.52;100656.66;5048322;28;19920;-72
2023/12/29 04:14:50;;;;;;;;;;;;;;;9.05;98.27;100652.34;5027451;28;19912;-72
2023/12/29 04:17:15;;;;;;;;;;;;;;;9.17;97.42;100646.16;5034729;28;19923;-68
2023/12/29 04:19:41;;;;;;;;;;;;;;;9.16;97.44;100644.41;5031877;28;19921;-72
2023/12/29 04:22:07;;;;;;;;;;;;;;;9.13;96.98;100642.69;5033800;28;19916;-72
2023/12/29 04:24:33;;;;;;;;;;;;;;;9.13;96.63;100647.91;5020118;28;20403;-71
2023/12/29 04:26:59;;;;;;;;;;;;;;;9.10;97.14;100639.25;5019680;28;20191;-70
2023/12/29 04:29:24;;;;;;;;;;;;;;;9.14;96.84;100635.72;5015926;28;19928;-70
2023/12/29 04:31:49;;;;;;;;;;;;;;;9.12;96.75;100646.19;5031603;28;19963;-73
2023/12/29 04:34:15;;;;;;;;;;;;;;;9.19;96.32;100654.84;5021209;28;19917;-72
2023/12/29 04:36:40;;;;;;;;;;;;;;;9.12;96.47;100646.19;5031916;28;19948;-73
2023/12/29 04:39:08;;;;;;;;;;;;;;;9.08;97.14;100651.44;5014146;28;20012;-72
2023/12/29 04:41:34;;;;;;;;;;;;;;;9.01;97.06;100646.28;5034838;28;20299;-72
2023/12/29 04:44:01;;;;;;;;;;;;;;;8.97;97.00;100647.19;5030882;28;19920;-71
2023/12/29 04:46:26;;;;;;;;;;;;;;;8.96;97.09;100653.28;5033692;28;20349;-72
2023/12/29 04:48:51;;;;;;;;;;;;;;;8.99;96.75;100658.50;5022404;28;19963;-71
2023/12/29 04:51:17;;;;;;;;;;;;;;;9.01;96.45;100651.50;5030238;28;20007;-73
2023/12/29 04:53:42;;;;;;;;;;;;;;;9.01;96.31;100646.28;5015186;28;19921;-72
2023/12/29 04:56:08;;;;;;;;;;;;;;;9.10;95.71;100650.56;5042504;28;20309;-71
2023/12/29 04:58:33;;;;;;;;;;;;;;;9.05;95.97;100667.16;5016848;28;19932;-71
2023/12/29 05:00:59;;;;;;;;;;;;;;;9.02;95.56;100663.69;5029537;28;19925;-72
2023/12/29 05:03:25;;;;;;;;;;;;;;;9.01;95.58;100661.09;5038912;28;19924;-71
2023/12/29 05:05:50;;;;;;;;;;;;;;;9.01;95.71;100656.72;5057878;28;20226;-72
2023/12/29 05:08:16;;;;;;;;;;;;;;;9.00;95.85;100656.75;5053164;28;19935;-72
2023/12/29 05:10:41;;;;;;;;;;;;;;;8.99;95.96;100673.28;5031549;28;19929;-73
2023/12/29 05:13:07;;;;;;;;;;;;;;;8.97;95.81;100669.84;5031178;28;20434;-72
2023/12/29 05:15:32;;;;;;;;;;;;;;;8.97;96.37;100670.69;5040298;28;19921;-72
2023/12/29 05:17:57;;;;;;;;;;;;;;;8.99;95.62;100663.72;5036695;28;19943;-72
2023/12/29 05:20:22;;;;;;;;;;;;;;;8.98;95.95;100658.50;5035146;28;20308;-72
2023/12/29 05:22:48;;;;;;;;;;;;;;;8.95;96.19;100659.41;5063893;28;20368;-70
2023/12/29 05:25:13;;;;;;;;;;;;;;;8.93;96.35;100658.53;5036225;28;19933;-71
2023/12/29 05:27:39;;;;;;;;;;;;;;;8.94;96.30;100654.19;5058230;28;19924;-72
2023/12/29 05:30:05;;;;;;;;;;;;;;;8.98;95.75;100651.53;5056191;28;19932;-73
2023/12/29 05:32:30;;;;;;;;;;;;;;;8.98;95.81;100662.00;5033715;28;19920;-73
2023/12/29 05:34:55;;;;;;;;;;;;;;;8.99;96.26;100668.06;5034607;28;20261;-72
2023/12/29 05:37:21;;;;;;;;;;;;;;;9.00;95.88;100657.59;5030092;28;20004;-73
2023/12/29 05:39:46;;;;;;;;;;;;;;;8.97;96.32;100648.94;5031572;28;19972;-70
2023/12/29 05:42:11;;;;;;;;;;;;;;;8.96;96.64;100662.88;5051898;28;19916;-72
2023/12/29 05:44:39;;;;;;;;;;;;;;;8.90;96.72;100652.47;5045985;28;19978;-71
2023/12/29 05:47:05;;;;;;;;;;;;;;;8.82;97.06;100661.25;5056298;28;19924;-73
2023/12/29 05:49:31;;;;;;;;;;;;;;;8.80;97.21;100656.91;5039567;28;19924;-72
2023/12/29 05:51:59;;;;;;;;;;;;;;;8.81;97.29;100658.63;5051387;28;20026;-72
2023/12/29 05:54:24;;;;;;;;;;;;;;;8.74;97.58;100651.72;5040372;28;20015;-79
2023/12/29 05:56:50;;;;;;;;;;;;;;;8.71;97.88;100656.97;5051272;28;19947;-81
2023/12/29 05:59:15;;;;;;;;;;;;;;;8.72;97.75;100653.47;5029534;28;19924;-78
2023/12/29 06:01:40;;;;;;;;;;;;;;;8.76;97.18;100655.19;5028828;28;20023;-80
2023/12/29 06:04:06;;;;;;;;;;;;;;;8.75;97.50;100658.66;5068235;28;20015;-81
2023/12/29 06:06:31;;;;;;;;;;;;;;;8.78;97.84;100650.84;5051013;28;20031;-72
2023/12/29 06:08:56;;;;;;;;;;;;;;;8.80;97.38;100657.75;5048917;28;19925;-72
2023/12/29 06:11:22;;;;;;;;;;;;;;;8.79;98.11;100652.53;5025908;28;19943;-72
2023/12/29 06:13:47;;;;;;;;;;;;;;;8.81;97.73;100658.63;5035468;28;19927;-74
2023/12/29 06:16:21;;;;;;;;;;;;;;;8.84;97.50;100653.38;5048434;28;20318;-71
2023/12/29 06:18:47;;;;;;;;;;;;;;;8.89;97.88;100648.97;5033637;28;19999;-80
2023/12/29 06:21:13;;;;;;;;;;;;;;;8.88;98.15;100656.81;5052334;28;20058;-81
2023/12/29 06:23:38;;;;;;;;;;;;;;;8.77;98.64;100659.53;5029625;28;19917;-80
2023/12/29 06:26:03;;;;;;;;;;;;;;;8.77;99.22;100656.94;5033079;28;19931;-80
2023/12/29 06:28:29;;;;;;;;;;;;;;;8.73;100.00;100655.22;5047080;28;19921;-80
2023/12/29 06:30:54;;;;;;;;;;;;;;;8.74;100.00;100667.41;5038344;28;19945;-76
2023/12/29 06:33:21;;;;;;;;;;;;;;;8.73;100.00;100658.69;5052781;28;19931;-79
2023/12/29 06:35:47;;;;;;;;;;;;;;;8.73;100.00;100647.38;5029015;28;19920;-80
2023/12/29 06:38:12;;;;;;;;;;;;;;;8.82;99.56;100649.91;5033237;28;19921;-81
2023/12/29 06:40:38;;;;;;;;;;;;;;;8.79;100.00;100655.16;5035923;28;19921;-80
2023/12/29 06:43:03;;;;;;;;;;;;;;;8.83;99.55;100651.66;5059475;28;20294;-72
2023/12/29 06:45:29;;;;;;;;;;;;;;;8.81;99.96;100649.03;5065246;28;20422;-71
2023/12/29 06:47:55;;;;;;;;;;;;;;;8.86;99.67;100650.75;5034302;28;19967;-71
2023/12/29 06:50:20;;;;;;;;;;;;;;;8.87;99.72;100648.13;5033137;28;19963;-73
2023/12/29 06:52:47;;;;;;;;;;;;;;;8.84;100.00;100648.16;5043530;28;19946;-72
2023/12/29 06:55:12;;;;;;;;;;;;;;;8.88;100.00;100647.25;5035366;28;19960;-72
2023/12/29 06:57:38;;;;;;;;;;;;;;;8.86;100.00;100651.63;5057550;28;19962;-70
2023/12/29 07:00:03;;;;;;;;;;;;;;;8.89;100.00;100641.13;5042483;28;19925;-71
2023/12/29 07:02:29;;;;;;;;;;;;;;;8.90;100.00;100653.34;5039511;28;19928;-71
2023/12/29 07:04:54;;;;;;;;;;;;;;;8.89;100.00;100656.81;5035332;28;20440;-72
2023/12/29 07:07:19;;;;;;;;;;;;;;;8.91;100.00;100644.63;5049220;28;19917;-71
2023/12/29 07:09:45;;;;;;;;;;;;;;;8.91;100.00;100639.41;5033129;28;20364;-72
2023/12/29 07:12:10;;;;;;;;;;;;;;;8.89;100.00;100638.53;5036483;28;19928;-72
2023/12/29 07:14:35;;;;;;;;;;;;;;;8.86;100.00;100635.94;5067024;28;20382;-71
2023/12/29 07:17:01;;;;;;;;;;;;;;;8.93;100.00;100634.16;5026979;28;19970;-71
2023/12/29 07:19:29;;;;;;;;;;;;;;;8.92;100.00;100635.91;5053455;28;19917;-71
2023/12/29 07:21:55;;;;;;;;;;;;;;;8.87;100.00;100622.00;5037597;28;19924;-80
2023/12/29 07:24:20;;;;;;;;;;;;;;;8.86;100.00;100620.25;5041108;28;20153;-78
2023/12/29 07:26:46;;;;;;;;;;;;;;;8.93;100.00;100615.84;5028765;28;20381;-72
2023/12/29 07:29:11;;;;;;;;;;;;;;;8.89;100.00;100638.53;5066697;28;20345;-72
2023/12/29 07:31:39;;;;;;;;;;;;;;;8.87;100.00;100645.53;5054099;28;19925;-72
2023/12/29 07:34:06;;;;;;;;;;;;;;;8.86;100.00;100650.75;5039159;28;19925;-81
2023/12/29 07:36:31;;;;;;;;;;;;;;;8.86;100.00;100643.78;5042360;28;19923;-80
2023/12/29 07:38:56;;;;;;;;;;;;;;;8.89;100.00;100630.69;5041203;28;19917;-79
2023/12/29 07:41:22;;;;;;;;;;;;;;;8.92;100.00;100622.84;5045516;28;19921;-78
2023/12/29 07:43:47;;;;;;;;;;;;;;;8.89;100.00;100637.66;5070624;28;19920;-79
2023/12/29 07:46:12;;;;;;;;;;;;;;;8.86;100.00;100635.94;5036772;28;20043;-81
2023/12/29 07:48:39;;;;;;;;;;;;;;;8.89;100.00;100615.00;5019792;28;19952;-71
2023/12/29 07:51:05;;;;;;;;;;;;;;;8.92;100.00;100620.22;5052764;28;19947;-72
2023/12/29 07:53:31;;;;;;;;;;;;;;;8.92;100.00;100622.84;5042731;28;19919;-71
2023/12/29 07:55:56;;;;;;;;;;;;;;;8.91;100.00;100625.47;5069502;28;19944;-71
2023/12/29 07:58:21;;;;;;;;;;;;;;;8.97;100.00;100628.03;5050540;28;19927;-71
2023/12/29 08:00:47;;;;;;;;;;;;;;;8.98;100.00;100635.00;5051953;28;19923;-74
2023/12/29 08:03:12;;;;;;;;;;;;;;;8.99;100.00;100634.09;5056940;28;20260;-72
2023/12/29 08:05:38;;;;;;;;;;;;;;;9.03;100.00;100651.47;5052269;28;19939;-71
2023/12/29 08:08:04;;;;;;;;;;;;;;;9.04;100.00;100653.22;5043958;28;20312;-72
2023/12/29 08:10:29;;;;;;;;;;;;;;;9.10;100.00;100647.94;5042530;28;19967;-71
2023/12/29 08:12:56;;;;;;;;;;;;;;;9.06;100.00;100637.53;5055237;28;19992;-71
2023/12/29 08:15:21;;;;;;;;;;;;;;;9.08;100.00;100640.97;5043307;28;19960;-70
2023/12/29 08:17:46;;;;;;;;;;;;;;;9.09;100.00;100622.66;5064950;28;20292;-72
2023/12/29 08:20:12;;;;;;;;;;;;;;;9.12;100.00;100624.41;5040947;28;20388;-72
2023/12/29 08:22:37;;;;;;;;;;;;;;;9.11;100.00;100643.59;5033514;28;19964;-78
2023/12/29 08:25:03;;;;;;;;;;;;;;;9.11;100.00;100635.75;5037744;28;19925;-72
2023/12/29 08:27:28;;;;;;;;;;;;;;;9.09;100.00;100640.13;5070193;28;19917;-72
2023/12/29 08:29:54;;;;;;;;;;;;;;;9.09;100.00;100634.88;5039519;28;20022;-71
2023/12/29 08:32:19;;;;;;;;;;;;;;;9.14;100.00;100638.34;5050881;28;20058;-72
2023/12/29 08:34:44;;;;;;;;;;;;;;;9.09;100.00;100655.78;5041122;28;19932;-71
2023/12/29 08:37:10;;;;;;;;;;;;;;;9.12;100.00;100640.06;5066499;28;20402;-80
2023/12/29 08:39:35;;;;;;;;;;;;;;;9.08;100.00;100633.13;5041017;28;19920;-72
2023/12/29 08:42:00;;;;;;;;;;;;;;;9.11;100.00;100634.00;5054160;28;19916;-67
2023/12/29 08:44:26;;;;;;;;;;;;;;;9.12;100.00;100645.31;5043811;28;20400;-71
2023/12/29 08:46:51;;;;;;;;;;;;;;;9.08;100.00;100649.72;5033823;28;19920;-72
2023/12/29 08:49:16;;;;;;;;;;;;;;;9.07;100.00;100662.78;5066787;28;20315;-71
2023/12/29 08:51:42;;;;;;;;;;;;;;;9.13;100.00;100665.34;5044394;28;19916;-71
2023/12/29 08:54:07;;;;;;;;;;;;;;;9.13;100.00;100657.50;5038790;28;19931;-72
2023/12/29 08:56:32;;;;;;;;;;;;;;;9.19;100.00;100662.66;5025851;28;19944;-71
2023/12/29 08:58:58;;;;;;;;;;;;;;;9.17;100.00;100667.06;5066129;28;19921;-70
2023/12/29 09:01:23;;;;;;;;;;;;;;;9.19;100.00;100666.19;5037829;28;19928;-72
2023/12/29 09:03:49;;;;;;;;;;;;;;;9.22;100.00;100660.03;5050663;28;19974;-71
2023/12/29 09:06:15;;;;;;;;;;;;;;;9.25;100.00;100670.47;5046586;28;19968;-72
2023/12/29 09:08:41;;;;;;;;;;;;;;;9.27;100.00;100678.31;5069071;28;19932;-70
2023/12/29 09:11:06;;;;;;;;;;;;;;;9.32;100.00;100672.16;5044630;28;19936;-73
2023/12/29 09:13:31;;;;;;;;;;;;;;;9.29;100.00;100656.47;5032336;28;19928;-71
2023/12/29 09:15:58;;;;;;;;;;;;;;;9.28;100.00;100667.84;5053285;28;20010;-72
2023/12/29 09:18:23;;;;;;;;;;;;;;;9.26;100.00;100676.56;5046855;28;19920;-72
2023/12/29 09:20:49;;;;;;;;;;;;;;;9.27;100.00;100673.09;5048003;28;20304;-74
2023/12/29 09:23:16;;;;;;;;;;;;;;;9.22;100.00;100675.72;5051475;28;19929;-73
2023/12/29 09:25:42;;;;;;;;;;;;;;;9.15;100.00;100679.25;5055850;28;19928;-71
2023/12/29 09:28:07;;;;;;;;;;;;;;;9.11;100.00;100672.34;5047251;28;19929;-80
2023/12/29 09:30:32;;;;;;;;;;;;;;;9.12;100.00;100676.69;5035931;28;20280;-80
2023/12/29 09:32:58;;;;;;;;;;;;;;;9.10;100.00;100686.28;5025159;28;19924;-80
2023/12/29 09:35:24;;;;;;;;;;;;;;;9.13;100.00;100686.25;5037060;28;20019;-81
2023/12/29 09:37:49;;;;;;;;;;;;;;;9.17;100.00;100693.22;5045758;28;19924;-81
2023/12/29 09:40:15;;;;;;;;;;;;;;;9.22;100.00;100686.16;5032762;28;19924;-80
2023/12/29 09:42:42;;;;;;;;;;;;;;;9.21;100.00;100694.91;5050533;28;20316;-80
2023/12/29 09:45:10;;;;;;;;;;;;;;;9.21;100.00;100692.31;5052909;28;19923;-80
2023/12/29 09:47:38;;;;;;;;;;;;;;;9.24;100.00;100694.00;5053550;28;20007;-80
2023/12/29 09:50:04;;;;;;;;;;;;;;;9.19;100.00;100697.56;5051204;28;20377;-80
2023/12/29 09:52:30;;;;;;;;;;;;;;;9.25;100.00;100701.88;5057601;28;19921;-80
2023/12/29 09:54:55;;;;;;;;;;;;;;;9.30;100.00;100699.19;5032155;28;19921;-78
2023/12/29 09:57:20;;;;;;;;;;;;;;;9.38;100.00;100696.50;5050111;28;19916;-78
2023/12/29 09:59:48;;;;;;;;;;;;;;;9.48;100.00;100699.03;5037232;28;19921;-78
2023/12/29 10:02:16;;;;;;;;;;;;;;;9.52;100.00;100692.00;5061159;28;20335;-80
2023/12/29 10:04:42;;;;;;;;;;;;;;;9.61;100.00;100707.63;5065394;28;19920;-76
2023/12/29 10:07:10;;;;;;;;;;;;;;;9.58;100.00;100694.56;5036404;28;20404;-78
2023/12/29 10:09:37;;;;;;;;;;;;;;;9.65;100.00;100692.75;5068656;28;19923;-80
2023/12/29 10:12:03;;;;;;;;;;;;;;;9.70;100.00;100698.81;5051332;28;20376;-80
2023/12/29 10:14:45;;;;;;;;;;;;;;;9.80;100.00;100699.59;5034893;28;19932;-80
2023/12/29 10:17:39;;;;;;;;;;;;;;;9.93;100.00;100701.19;5052109;28;19931;-80
2023/12/29 10:20:12;;;;;;;;;;;;;;;9.99;100.00;100697.63;5034553;28;19977;-81
2023/12/29 10:22:43;;;;;;;;;;;;;;;10.00;100.00;100708.06;5062000;28;19924;-80
2023/12/29 10:25:09;;;;;;;;;;;;;;;10.01;100.00;100709.81;5068279;28;19913;-73
2023/12/29 10:27:37;;;;;;;;;;;;;;;10.14;99.91;100709.66;5034748;28;19924;-72
2023/12/29 10:30:03;;;;;;;;;;;;;;;10.27;98.89;100711.25;5443830;22;20074;-70
2023/12/29 10:32:29;;;;;;;;;;;;;;;10.37;98.54;100714.63;5070993;28;19928;-72
2023/12/29 10:35:21;;;;;;;;;;;;;;;10.47;97.92;100725.88;5069811;28;19931;-71
2023/12/29 10:37:47;;;;;;;;;;;;;;;10.52;97.44;100732.78;5084553;28;19970;-73
2023/12/29 10:40:16;;;;;;;;;;;;;;;10.49;97.08;100732.81;5070548;28;20267;-73
2023/12/29 10:42:51;;;;;;;;;;;;;;;10.32;97.49;100735.63;5079402;28;19920;-72
2023/12/29 10:45:16;;;;;;;;;;;;;;;10.20;96.90;100748.84;5089037;28;20022;-71
2023/12/29 10:47:45;;;;;;;;;;;;;;;10.08;97.84;100746.41;5093268;28;20015;-73
2023/12/29 10:50:10;;;;;;;;;;;;;;;10.02;98.63;100745.56;5074494;28;19921;-73
2023/12/29 10:52:37;;;;;;;;;;;;;;;10.02;98.27;100742.94;5072583;28;20406;-72
2023/12/29 10:55:05;;;;;;;;;;;;;;;9.95;98.33;100743.91;5075360;28;19923;-77
2023/12/29 11:00:07;;;;;;;;;;;;;;;9.94;99.29;100739.56;5368033;22;19931;-72
2023/12/29 11:02:53;;;;;;;;;;;;;;;9.95;97.77;100725.56;5035348;28;20023;-71
2023/12/29 11:05:24;;;;;;;;;;;;;;;10.00;98.37;100722.94;5058032;28;19927;-80
2023/12/29 11:07:53;;;;;;;;;;;;;;;9.99;98.78;100726.41;5118209;22;19928;-73
2023/12/29 11:10:20;;;;;;;;;;;;;;;10.01;98.54;100724.63;5089182;28;20424;-80
2023/12/29 11:12:46;;;;;;;;;;;;;;;10.05;98.85;100724.59;5070688;28;20007;-72
2023/12/29 11:15:13;;;;;;;;;;;;;;;10.08;98.08;100718.44;5096727;28;19995;-80
2023/12/29 11:17:41;;;;;;;;;;;;;;;10.14;98.53;100717.50;5091075;28;19919;-80
2023/12/29 11:20:06;;;;;;;;;;;;;;;10.15;98.33;100716.63;5091767;28;20038;-80
2023/12/29 11:25:08;;;;;;;;;;;;;;;10.24;97.66;100716.50;5534767;22;20002;-72
2023/12/29 11:27:34;;;;;;;;;;;;;;;10.23;97.62;100720.03;5075852;28;19925;-73
2023/12/29 11:30:00;;;;;;;;;;;;;;;10.29;97.16;100719.09;5059576;28;19924;-73
2023/12/29 11:32:30;;;;;;;;;;;;;;;10.28;97.50;100714.72;5056907;28;19929;-73
2023/12/29 11:35:03;;;;;;;;;;;;;;;10.29;97.61;100713.84;5067919;28;19923;-72
2023/12/29 11:37:33;;;;;;;;;;;;;;;10.28;98.07;100714.72;5075487;28;19962;-72
2023/12/29 11:40:14;;;;;;;;;;;;;;;10.29;97.87;100711.25;5074858;28;19943;-72
2023/12/29 11:42:42;;;;;;;;;;;;;;;10.29;97.83;100722.56;5069153;28;19924;-73
2023/12/29 11:45:31;;;;;;;;;;;;;;;10.34;97.48;100718.19;5069799;28;19916;-72
2023/12/29 11:48:02;;;;;;;;;;;;;;;10.23;97.45;100710.41;5074833;28;19923;-73
2023/12/29 11:50:28;;;;;;;;;;;;;;;10.18;nan;100706.13;5046160;28;20442;-72
2023/12/29 11:52:54;;;;;;;;;;;;;;;10.13;98.39;100707.91;5064392;28;20383;-72
2023/12/29 11:55:19;;;;;;;;;;;;;;;10.11;98.70;100705.31;5052149;28;19924;-71
2023/12/29 11:57:45;;;;;;;;;;;;;;;10.07;98.88;100714.13;5055886;28;21472;-71
2023/12/29 12:00:11;;;;;;;;;;;;;;;10.02;99.34;100708.91;5073943;28;19935;-72
2023/12/29 12:02:37;;;;;;;;;;;;;;;9.96;99.20;100701.13;5065664;28;20359;-73
2023/12/29 12:05:03;;;;;;;;;;;;;;;9.89;99.52;100700.34;5075527;28;19973;-73
2023/12/29 12:07:30;;;;;;;;;;;;;;;9.81;100.00;100690.84;5069640;28;20003;-72
2023/12/29 12:10:16;;;;;;;;;;;;;;;9.76;100.00;100697.88;5075866;28;19922;-70
2023/12/29 12:12:42;;;;;;;;;;;;;;;9.69;100.00;100697.94;5077567;28;19943;-72
2023/12/29 12:15:26;;;;;;;;;;;;;;;9.65;100.00;100701.47;5047060;28;19928;-73
2023/12/29 12:17:56;;;;;;;;;;;;;;;9.62;100.00;100690.16;5086026;28;19946;-72
2023/12/29 12:20:21;;;;;;;;;;;;;;;9.62;100.00;100704.09;5070543;28;20445;-73
2023/12/29 12:22:50;;;;;;;;;;;;;;;9.61;100.00;100698.91;5057883;28;19912;-80
2023/12/29 12:25:16;;;;;;;;;;;;;;;9.62;100.00;100691.03;5069686;28;19959;-80
2023/12/29 12:27:41;;;;;;;;;;;;;;;9.66;100.00;100697.13;5054594;28;20291;-79
2023/12/29 12:30:09;;;;;;;;;;;;;;;9.60;100.00;100684.09;5045702;28;19925;-80
2023/12/29 12:32:35;;;;;;;;;;;;;;;9.54;100.00;100679.78;5068886;28;19928;-80
2023/12/29 12:35:01;;;;;;;;;;;;;;;9.48;100.00;100675.50;5056949;28;20486;-80
2023/12/29 12:37:27;;;;;;;;;;;;;;;9.44;100.00;100676.41;5054231;28;20007;-80
2023/12/29 12:39:55;;;;;;;;;;;;;;;9.40;100.00;100676.44;5063741;28;19916;-79
2023/12/29 12:42:21;;;;;;;;;;;;;;;9.39;100.00;100682.56;5054356;28;19924;-80